sensor_id;sensor_type;location;lat;lon;timestamp;P1;durP1;ratioP1;P2;durP2;ratioP2
10100;SDS011;5090;51.258;4.436;2022-12-24T00:29:03;30.93;;;6.30;;
10100;SDS011;5090;51.258;4.436;2022-12-24T00:31:51;36.27;;;5.90;;
10100;SDS011;5090;51.258;4.436;2022-12-24T00:34:21;31.23;;;5.20;;
10100;SDS011;5090;51.258;4.436;2022-12-24T00:36:52;37.57;;;5.43;;
10100;SDS011;5090;51.258;4.436;2022-12-24T01:02:49;34.73;;;5.40;;
10100;SDS011;5090;51.258;4.436;2022-12-24T01:28:52;40.77;;;5.37;;
10100;SDS011;5090;51.258;4.436;2022-12-24T01:31:19;33.40;;;5.10;;
10100;SDS011;5090;51.258;4.436;2022-12-24T01:33:48;28.83;;;4.70;;
10100;SDS011;5090;51.258;4.436;2022-12-24T01:36:16;31.63;;;4.80;;
10100;SDS011;5090;51.258;4.436;2022-12-24T01:38:44;32.03;;;4.97;;
10100;SDS011;5090;51.258;4.436;2022-12-24T01:41:14;32.13;;;5.13;;
10100;SDS011;5090;51.258;4.436;2022-12-24T01:43:46;28.47;;;4.50;;
10100;SDS011;5090;51.258;4.436;2022-12-24T01:46:19;32.83;;;5.23;;
10100;SDS011;5090;51.258;4.436;2022-12-24T01:48:48;25.03;;;4.50;;
10100;SDS011;5090;51.258;4.436;2022-12-24T01:51:26;29.63;;;4.80;;
10100;SDS011;5090;51.258;4.436;2022-12-24T01:53:57;23.97;;;4.80;;
10100;SDS011;5090;51.258;4.436;2022-12-24T01:56:24;23.17;;;4.70;;
10100;SDS011;5090;51.258;4.436;2022-12-24T01:58:53;19.57;;;4.37;;
10100;SDS011;5090;51.258;4.436;2022-12-24T02:01:20;32.50;;;4.47;;
10100;SDS011;5090;51.258;4.436;2022-12-24T02:03:48;26.00;;;4.40;;
10100;SDS011;5090;51.258;4.436;2022-12-24T02:06:17;20.10;;;3.57;;
10100;SDS011;5090;51.258;4.436;2022-12-24T02:08:45;22.80;;;3.90;;
10100;SDS011;5090;51.258;4.436;2022-12-24T02:11:16;21.40;;;3.97;;
10100;SDS011;5090;51.258;4.436;2022-12-24T02:13:45;23.87;;;3.63;;
10100;SDS011;5090;51.258;4.436;2022-12-24T02:16:17;25.43;;;3.87;;
10100;SDS011;5090;51.258;4.436;2022-12-24T02:18:51;31.90;;;5.13;;
10100;SDS011;5090;51.258;4.436;2022-12-24T02:21:21;19.17;;;3.33;;
10100;SDS011;5090;51.258;4.436;2022-12-24T02:26:22;23.20;;;3.73;;
10100;SDS011;5090;51.258;4.436;2022-12-24T02:28:58;22.47;;;3.50;;
10100;SDS011;5090;51.258;4.436;2022-12-24T02:31:28;19.73;;;3.17;;
10100;SDS011;5090;51.258;4.436;2022-12-24T02:33:58;17.77;;;3.93;;
10100;SDS011;5090;51.258;4.436;2022-12-24T02:36:28;22.90;;;3.83;;
10100;SDS011;5090;51.258;4.436;2022-12-24T03:01:54;19.80;;;4.67;;
10100;SDS011;5090;51.258;4.436;2022-12-24T03:04:31;26.03;;;4.13;;
10100;SDS011;5090;51.258;4.436;2022-12-24T03:07:09;26.70;;;4.17;;
10100;SDS011;5090;51.258;4.436;2022-12-24T03:09:37;22.97;;;4.00;;
10100;SDS011;5090;51.258;4.436;2022-12-24T03:12:06;32.87;;;5.07;;
10100;SDS011;5090;51.258;4.436;2022-12-24T03:14:33;26.40;;;5.07;;
10100;SDS011;5090;51.258;4.436;2022-12-24T03:17:01;30.47;;;5.33;;
10100;SDS011;5090;51.258;4.436;2022-12-24T03:19:29;32.90;;;5.30;;
10100;SDS011;5090;51.258;4.436;2022-12-24T03:21:58;33.73;;;5.60;;
10100;SDS011;5090;51.258;4.436;2022-12-24T03:24:26;27.53;;;4.37;;
10100;SDS011;5090;51.258;4.436;2022-12-24T03:26:54;30.37;;;5.47;;
10100;SDS011;5090;51.258;4.436;2022-12-24T03:29:22;31.40;;;4.67;;
10100;SDS011;5090;51.258;4.436;2022-12-24T03:31:51;33.70;;;4.97;;
10100;SDS011;5090;51.258;4.436;2022-12-24T03:34:19;31.73;;;5.13;;
10100;SDS011;5090;51.258;4.436;2022-12-24T03:36:47;26.07;;;6.07;;
10100;SDS011;5090;51.258;4.436;2022-12-24T03:39:15;30.80;;;4.57;;
10100;SDS011;5090;51.258;4.436;2022-12-24T03:41:43;27.10;;;5.53;;
10100;SDS011;5090;51.258;4.436;2022-12-24T03:44:11;21.63;;;4.33;;
10100;SDS011;5090;51.258;4.436;2022-12-24T03:46:40;26.17;;;5.20;;
10100;SDS011;5090;51.258;4.436;2022-12-24T03:49:08;29.90;;;4.83;;
10100;SDS011;5090;51.258;4.436;2022-12-24T03:51:36;24.60;;;4.77;;
10100;SDS011;5090;51.258;4.436;2022-12-24T03:54:04;24.67;;;5.03;;
10100;SDS011;5090;51.258;4.436;2022-12-24T03:56:32;22.00;;;4.23;;
10100;SDS011;5090;51.258;4.436;2022-12-24T03:59:01;19.27;;;4.30;;
10100;SDS011;5090;51.258;4.436;2022-12-24T04:01:29;29.23;;;4.07;;
10100;SDS011;5090;51.258;4.436;2022-12-24T04:03:57;20.13;;;4.23;;
10100;SDS011;5090;51.258;4.436;2022-12-24T04:06:25;25.43;;;3.57;;
10100;SDS011;5090;51.258;4.436;2022-12-24T04:08:53;22.57;;;4.30;;
10100;SDS011;5090;51.258;4.436;2022-12-24T04:11:21;19.53;;;4.40;;
10100;SDS011;5090;51.258;4.436;2022-12-24T04:13:50;23.37;;;4.13;;
10100;SDS011;5090;51.258;4.436;2022-12-24T04:16:18;20.83;;;3.87;;
10100;SDS011;5090;51.258;4.436;2022-12-24T04:18:46;23.53;;;4.37;;
10100;SDS011;5090;51.258;4.436;2022-12-24T04:21:14;28.07;;;4.33;;
10100;SDS011;5090;51.258;4.436;2022-12-24T04:23:42;23.47;;;3.77;;
10100;SDS011;5090;51.258;4.436;2022-12-24T04:26:11;22.93;;;4.10;;
10100;SDS011;5090;51.258;4.436;2022-12-24T04:28:39;36.40;;;5.10;;
10100;SDS011;5090;51.258;4.436;2022-12-24T04:31:08;25.40;;;4.10;;
10100;SDS011;5090;51.258;4.436;2022-12-24T04:33:35;26.20;;;4.10;;
10100;SDS011;5090;51.258;4.436;2022-12-24T04:36:04;29.87;;;4.83;;
10100;SDS011;5090;51.258;4.436;2022-12-24T04:38:32;30.13;;;6.50;;
10100;SDS011;5090;51.258;4.436;2022-12-24T04:41:02;25.53;;;4.83;;
10100;SDS011;5090;51.258;4.436;2022-12-24T04:43:29;28.43;;;4.73;;
10100;SDS011;5090;51.258;4.436;2022-12-24T04:46:06;23.43;;;4.43;;
10100;SDS011;5090;51.258;4.436;2022-12-24T04:48:34;31.20;;;5.00;;
10100;SDS011;5090;51.258;4.436;2022-12-24T04:51:03;28.83;;;4.17;;
10100;SDS011;5090;51.258;4.436;2022-12-24T04:53:31;28.67;;;5.80;;
10100;SDS011;5090;51.258;4.436;2022-12-24T04:55:59;21.63;;;4.77;;
10100;SDS011;5090;51.258;4.436;2022-12-24T04:58:27;25.23;;;5.37;;
10100;SDS011;5090;51.258;4.436;2022-12-24T05:00:55;32.93;;;5.40;;
10100;SDS011;5090;51.258;4.436;2022-12-24T05:03:23;31.27;;;4.53;;
10100;SDS011;5090;51.258;4.436;2022-12-24T05:05:51;30.57;;;5.13;;
10100;SDS011;5090;51.258;4.436;2022-12-24T05:08:20;27.37;;;4.17;;
10100;SDS011;5090;51.258;4.436;2022-12-24T05:10:53;18.47;;;4.57;;
10100;SDS011;5090;51.258;4.436;2022-12-24T05:13:16;32.07;;;5.40;;
10100;SDS011;5090;51.258;4.436;2022-12-24T05:15:44;24.90;;;4.70;;
10100;SDS011;5090;51.258;4.436;2022-12-24T05:18:13;38.50;;;6.27;;
10100;SDS011;5090;51.258;4.436;2022-12-24T05:20:41;35.43;;;5.37;;
10100;SDS011;5090;51.258;4.436;2022-12-24T05:23:15;23.87;;;4.83;;
10100;SDS011;5090;51.258;4.436;2022-12-24T05:25:49;28.83;;;4.70;;
10100;SDS011;5090;51.258;4.436;2022-12-24T05:28:23;31.97;;;5.10;;
10100;SDS011;5090;51.258;4.436;2022-12-24T05:30:51;31.67;;;5.87;;
10100;SDS011;5090;51.258;4.436;2022-12-24T05:33:19;38.73;;;5.27;;
10100;SDS011;5090;51.258;4.436;2022-12-24T05:35:49;32.70;;;5.27;;
10100;SDS011;5090;51.258;4.436;2022-12-24T05:38:16;31.70;;;5.10;;
10100;SDS011;5090;51.258;4.436;2022-12-24T05:40:44;27.73;;;5.03;;
10100;SDS011;5090;51.258;4.436;2022-12-24T05:43:12;27.47;;;5.10;;
10100;SDS011;5090;51.258;4.436;2022-12-24T05:45:40;26.50;;;5.00;;
10100;SDS011;5090;51.258;4.436;2022-12-24T05:48:09;33.43;;;5.87;;
10100;SDS011;5090;51.258;4.436;2022-12-24T05:50:38;28.30;;;5.23;;
10100;SDS011;5090;51.258;4.436;2022-12-24T05:53:06;31.73;;;5.40;;
10100;SDS011;5090;51.258;4.436;2022-12-24T05:55:34;27.20;;;4.50;;
10100;SDS011;5090;51.258;4.436;2022-12-24T05:58:02;39.73;;;4.87;;
10100;SDS011;5090;51.258;4.436;2022-12-24T06:00:30;30.70;;;5.00;;
10100;SDS011;5090;51.258;4.436;2022-12-24T06:02:59;31.77;;;5.57;;
10100;SDS011;5090;51.258;4.436;2022-12-24T06:05:27;31.27;;;4.83;;
10100;SDS011;5090;51.258;4.436;2022-12-24T06:07:55;27.17;;;5.33;;
10100;SDS011;5090;51.258;4.436;2022-12-24T06:10:23;34.67;;;4.97;;
10100;SDS011;5090;51.258;4.436;2022-12-24T06:12:51;36.50;;;5.53;;
10100;SDS011;5090;51.258;4.436;2022-12-24T06:15:20;31.60;;;5.30;;
10100;SDS011;5090;51.258;4.436;2022-12-24T06:17:48;35.67;;;6.07;;
10100;SDS011;5090;51.258;4.436;2022-12-24T06:20:16;31.83;;;5.50;;
10100;SDS011;5090;51.258;4.436;2022-12-24T06:22:44;30.07;;;4.90;;
10100;SDS011;5090;51.258;4.436;2022-12-24T06:25:12;30.50;;;5.27;;
10100;SDS011;5090;51.258;4.436;2022-12-24T06:27:41;36.00;;;5.60;;
10100;SDS011;5090;51.258;4.436;2022-12-24T06:30:09;33.13;;;6.07;;
10100;SDS011;5090;51.258;4.436;2022-12-24T06:32:37;35.40;;;5.33;;
10100;SDS011;5090;51.258;4.436;2022-12-24T06:35:06;30.20;;;5.60;;
10100;SDS011;5090;51.258;4.436;2022-12-24T06:37:34;29.67;;;5.17;;
10100;SDS011;5090;51.258;4.436;2022-12-24T06:40:02;29.90;;;6.47;;
10100;SDS011;5090;51.258;4.436;2022-12-24T06:42:30;31.30;;;5.20;;
10100;SDS011;5090;51.258;4.436;2022-12-24T06:44:59;26.00;;;5.13;;
10100;SDS011;5090;51.258;4.436;2022-12-24T06:47:27;23.83;;;5.20;;
10100;SDS011;5090;51.258;4.436;2022-12-24T06:49:55;33.47;;;5.73;;
10100;SDS011;5090;51.258;4.436;2022-12-24T06:52:23;26.30;;;5.10;;
10100;SDS011;5090;51.258;4.436;2022-12-24T06:54:51;27.90;;;5.97;;
10100;SDS011;5090;51.258;4.436;2022-12-24T06:57:20;31.90;;;5.67;;
10100;SDS011;5090;51.258;4.436;2022-12-24T06:59:48;27.87;;;5.07;;
10100;SDS011;5090;51.258;4.436;2022-12-24T07:02:16;23.20;;;4.40;;
10100;SDS011;5090;51.258;4.436;2022-12-24T07:04:44;33.00;;;4.93;;
10100;SDS011;5090;51.258;4.436;2022-12-24T07:07:12;33.27;;;5.87;;
10100;SDS011;5090;51.258;4.436;2022-12-24T07:09:41;36.23;;;4.93;;
10100;SDS011;5090;51.258;4.436;2022-12-24T07:29:38;33.13;;;6.07;;
10100;SDS011;5090;51.258;4.436;2022-12-24T07:32:06;37.83;;;6.30;;
10100;SDS011;5090;51.258;4.436;2022-12-24T07:34:35;33.50;;;6.53;;
10100;SDS011;5090;51.258;4.436;2022-12-24T07:37:03;46.70;;;6.57;;
10100;SDS011;5090;51.258;4.436;2022-12-24T07:39:31;39.10;;;5.57;;
10100;SDS011;5090;51.258;4.436;2022-12-24T07:41:59;36.70;;;6.00;;
10100;SDS011;5090;51.258;4.436;2022-12-24T07:44:27;50.27;;;6.57;;
10100;SDS011;5090;51.258;4.436;2022-12-24T07:46:55;32.63;;;5.80;;
10100;SDS011;5090;51.258;4.436;2022-12-24T07:49:24;35.37;;;6.57;;
10100;SDS011;5090;51.258;4.436;2022-12-24T07:51:52;38.57;;;5.83;;
10100;SDS011;5090;51.258;4.436;2022-12-24T07:54:20;30.90;;;6.50;;
10100;SDS011;5090;51.258;4.436;2022-12-24T07:56:48;41.07;;;6.30;;
10100;SDS011;5090;51.258;4.436;2022-12-24T07:59:16;40.70;;;6.13;;
10100;SDS011;5090;51.258;4.436;2022-12-24T08:01:45;40.27;;;6.00;;
10100;SDS011;5090;51.258;4.436;2022-12-24T08:04:13;37.20;;;6.67;;
10100;SDS011;5090;51.258;4.436;2022-12-24T08:06:41;35.50;;;7.10;;
10100;SDS011;5090;51.258;4.436;2022-12-24T08:09:09;33.70;;;7.70;;
10100;SDS011;5090;51.258;4.436;2022-12-24T08:11:38;33.33;;;6.03;;
10100;SDS011;5090;51.258;4.436;2022-12-24T08:14:06;38.90;;;7.97;;
10100;SDS011;5090;51.258;4.436;2022-12-24T08:16:34;25.63;;;6.47;;
10100;SDS011;5090;51.258;4.436;2022-12-24T08:19:02;36.90;;;7.60;;
10100;SDS011;5090;51.258;4.436;2022-12-24T08:21:31;39.93;;;6.90;;
10100;SDS011;5090;51.258;4.436;2022-12-24T08:23:59;35.20;;;6.10;;
10100;SDS011;5090;51.258;4.436;2022-12-24T08:26:27;34.73;;;7.17;;
10100;SDS011;5090;51.258;4.436;2022-12-24T08:28:56;33.63;;;7.17;;
10100;SDS011;5090;51.258;4.436;2022-12-24T08:31:24;40.63;;;6.80;;
10100;SDS011;5090;51.258;4.436;2022-12-24T08:33:52;36.00;;;5.83;;
10100;SDS011;5090;51.258;4.436;2022-12-24T08:36:20;34.27;;;5.93;;
10100;SDS011;5090;51.258;4.436;2022-12-24T08:38:49;29.80;;;5.90;;
10100;SDS011;5090;51.258;4.436;2022-12-24T08:41:17;28.40;;;5.87;;
10100;SDS011;5090;51.258;4.436;2022-12-24T08:43:45;39.03;;;5.80;;
10100;SDS011;5090;51.258;4.436;2022-12-24T08:46:13;34.77;;;5.53;;
10100;SDS011;5090;51.258;4.436;2022-12-24T08:48:41;28.33;;;5.57;;
10100;SDS011;5090;51.258;4.436;2022-12-24T08:51:10;32.73;;;6.43;;
10100;SDS011;5090;51.258;4.436;2022-12-24T08:53:38;36.77;;;5.50;;
10100;SDS011;5090;51.258;4.436;2022-12-24T08:56:07;28.97;;;5.30;;
10100;SDS011;5090;51.258;4.436;2022-12-24T08:58:34;35.33;;;5.27;;
10100;SDS011;5090;51.258;4.436;2022-12-24T09:03:37;34.10;;;5.43;;
10100;SDS011;5090;51.258;4.436;2022-12-24T09:06:05;28.67;;;5.70;;
10100;SDS011;5090;51.258;4.436;2022-12-24T09:08:33;37.87;;;6.07;;
10100;SDS011;5090;51.258;4.436;2022-12-24T09:11:03;30.53;;;6.67;;
10100;SDS011;5090;51.258;4.436;2022-12-24T09:13:30;34.33;;;5.50;;
10100;SDS011;5090;51.258;4.436;2022-12-24T09:15:58;31.80;;;5.90;;
10100;SDS011;5090;51.258;4.436;2022-12-24T09:18:26;38.27;;;5.40;;
10100;SDS011;5090;51.258;4.436;2022-12-24T09:20:58;36.17;;;6.97;;
10100;SDS011;5090;51.258;4.436;2022-12-24T09:23:25;25.87;;;5.10;;
10100;SDS011;5090;51.258;4.436;2022-12-24T09:25:54;27.57;;;6.00;;
10100;SDS011;5090;51.258;4.436;2022-12-24T09:28:22;34.37;;;5.57;;
10100;SDS011;5090;51.258;4.436;2022-12-24T09:30:54;24.57;;;5.73;;
10100;SDS011;5090;51.258;4.436;2022-12-24T09:33:21;30.27;;;5.43;;
10100;SDS011;5090;51.258;4.436;2022-12-24T09:35:50;38.97;;;6.90;;
10100;SDS011;5090;51.258;4.436;2022-12-24T09:38:18;30.63;;;5.00;;
10100;SDS011;5090;51.258;4.436;2022-12-24T09:40:46;29.60;;;5.33;;
10100;SDS011;5090;51.258;4.436;2022-12-24T09:43:23;33.30;;;4.83;;
10100;SDS011;5090;51.258;4.436;2022-12-24T09:46:03;32.97;;;5.07;;
10100;SDS011;5090;51.258;4.436;2022-12-24T09:48:32;35.03;;;5.70;;
10100;SDS011;5090;51.258;4.436;2022-12-24T09:51:02;33.40;;;6.83;;
10100;SDS011;5090;51.258;4.436;2022-12-24T09:56:05;29.30;;;5.07;;
10100;SDS011;5090;51.258;4.436;2022-12-24T09:58:33;31.83;;;5.43;;
10100;SDS011;5090;51.258;4.436;2022-12-24T10:01:01;25.53;;;4.97;;
10100;SDS011;5090;51.258;4.436;2022-12-24T10:03:29;32.17;;;5.13;;
10100;SDS011;5090;51.258;4.436;2022-12-24T10:06:03;36.67;;;4.97;;
10100;SDS011;5090;51.258;4.436;2022-12-24T10:08:33;21.23;;;5.03;;
10100;SDS011;5090;51.258;4.436;2022-12-24T10:10:59;35.33;;;5.13;;
10100;SDS011;5090;51.258;4.436;2022-12-24T10:16:06;24.83;;;5.57;;
10100;SDS011;5090;51.258;4.436;2022-12-24T10:18:40;35.63;;;5.60;;
10100;SDS011;5090;51.258;4.436;2022-12-24T10:21:27;28.50;;;6.07;;
10100;SDS011;5090;51.258;4.436;2022-12-24T10:23:55;29.17;;;6.13;;
10100;SDS011;5090;51.258;4.436;2022-12-24T10:26:23;31.70;;;5.70;;
10100;SDS011;5090;51.258;4.436;2022-12-24T10:28:51;32.07;;;6.00;;
10100;SDS011;5090;51.258;4.436;2022-12-24T10:31:18;27.80;;;5.37;;
10100;SDS011;5090;51.258;4.436;2022-12-24T10:33:48;35.83;;;6.23;;
10100;SDS011;5090;51.258;4.436;2022-12-24T10:36:16;28.80;;;5.60;;
10100;SDS011;5090;51.258;4.436;2022-12-24T10:38:43;32.63;;;6.57;;
10100;SDS011;5090;51.258;4.436;2022-12-24T10:41:11;28.67;;;5.90;;
10100;SDS011;5090;51.258;4.436;2022-12-24T10:43:39;34.23;;;6.70;;
10100;SDS011;5090;51.258;4.436;2022-12-24T10:46:17;27.33;;;5.63;;
10100;SDS011;5090;51.258;4.436;2022-12-24T10:48:47;29.30;;;5.47;;
10100;SDS011;5090;51.258;4.436;2022-12-24T10:51:14;35.07;;;6.53;;
10100;SDS011;5090;51.258;4.436;2022-12-24T10:53:43;28.70;;;5.07;;
10100;SDS011;5090;51.258;4.436;2022-12-24T10:56:10;26.67;;;5.80;;
10100;SDS011;5090;51.258;4.436;2022-12-24T10:58:43;25.83;;;5.70;;
10100;SDS011;5090;51.258;4.436;2022-12-24T11:01:10;20.90;;;5.17;;
10100;SDS011;5090;51.258;4.436;2022-12-24T11:03:39;30.97;;;5.63;;
10100;SDS011;5090;51.258;4.436;2022-12-24T11:06:08;30.77;;;5.50;;
10100;SDS011;5090;51.258;4.436;2022-12-24T11:08:36;29.33;;;5.40;;
10100;SDS011;5090;51.258;4.436;2022-12-24T11:11:04;25.87;;;5.67;;
10100;SDS011;5090;51.258;4.436;2022-12-24T11:13:35;42.43;;;7.63;;
10100;SDS011;5090;51.258;4.436;2022-12-24T11:16:18;29.93;;;6.27;;
10100;SDS011;5090;51.258;4.436;2022-12-24T11:18:46;26.73;;;5.97;;
10100;SDS011;5090;51.258;4.436;2022-12-24T11:21:17;24.03;;;5.50;;
10100;SDS011;5090;51.258;4.436;2022-12-24T11:23:41;24.87;;;5.77;;
10100;SDS011;5090;51.258;4.436;2022-12-24T11:26:09;19.60;;;4.77;;
10100;SDS011;5090;51.258;4.436;2022-12-24T11:28:37;31.20;;;6.43;;
10100;SDS011;5090;51.258;4.436;2022-12-24T11:31:17;28.00;;;5.50;;
10100;SDS011;5090;51.258;4.436;2022-12-24T11:33:44;32.37;;;6.20;;
10100;SDS011;5090;51.258;4.436;2022-12-24T11:36:03;29.27;;;6.30;;
10100;SDS011;5090;51.258;4.436;2022-12-24T11:38:31;36.63;;;6.63;;
10100;SDS011;5090;51.258;4.436;2022-12-24T11:41:01;27.03;;;6.17;;
10100;SDS011;5090;51.258;4.436;2022-12-24T11:43:35;35.43;;;6.03;;
10100;SDS011;5090;51.258;4.436;2022-12-24T11:46:02;20.37;;;5.10;;
10100;SDS011;5090;51.258;4.436;2022-12-24T11:48:31;25.27;;;5.93;;
10100;SDS011;5090;51.258;4.436;2022-12-24T11:50:59;30.10;;;5.73;;
10100;SDS011;5090;51.258;4.436;2022-12-24T11:56:01;25.70;;;5.63;;
10100;SDS011;5090;51.258;4.436;2022-12-24T11:58:30;30.57;;;6.23;;
10100;SDS011;5090;51.258;4.436;2022-12-24T12:03:41;28.90;;;5.83;;
10100;SDS011;5090;51.258;4.436;2022-12-24T12:06:28;24.00;;;6.30;;
10100;SDS011;5090;51.258;4.436;2022-12-24T12:08:56;25.23;;;5.77;;
10100;SDS011;5090;51.258;4.436;2022-12-24T12:11:24;25.93;;;5.40;;
10100;SDS011;5090;51.258;4.436;2022-12-24T12:13:51;28.97;;;7.13;;
10100;SDS011;5090;51.258;4.436;2022-12-24T12:19:05;27.10;;;6.60;;
10100;SDS011;5090;51.258;4.436;2022-12-24T12:21:37;28.63;;;5.70;;
10100;SDS011;5090;51.258;4.436;2022-12-24T12:24:05;33.57;;;6.07;;
10100;SDS011;5090;51.258;4.436;2022-12-24T12:26:32;24.17;;;5.43;;
10100;SDS011;5090;51.258;4.436;2022-12-24T12:29:13;25.50;;;5.03;;
10100;SDS011;5090;51.258;4.436;2022-12-24T12:31:37;28.13;;;5.73;;
10100;SDS011;5090;51.258;4.436;2022-12-24T12:34:09;27.27;;;5.10;;
10100;SDS011;5090;51.258;4.436;2022-12-24T12:36:38;33.43;;;6.27;;
10100;SDS011;5090;51.258;4.436;2022-12-24T12:39:03;27.03;;;4.77;;
10100;SDS011;5090;51.258;4.436;2022-12-24T12:41:45;30.00;;;6.23;;
10100;SDS011;5090;51.258;4.436;2022-12-24T12:44:24;38.20;;;5.90;;
10100;SDS011;5090;51.258;4.436;2022-12-24T12:46:56;24.03;;;5.80;;
10100;SDS011;5090;51.258;4.436;2022-12-24T12:49:36;28.63;;;5.07;;
10100;SDS011;5090;51.258;4.436;2022-12-24T12:54:43;26.57;;;5.70;;
10100;SDS011;5090;51.258;4.436;2022-12-24T12:57:07;38.03;;;6.67;;
10100;SDS011;5090;51.258;4.436;2022-12-24T12:59:37;32.27;;;5.27;;
10100;SDS011;5090;51.258;4.436;2022-12-24T13:02:11;29.47;;;5.47;;
10100;SDS011;5090;51.258;4.436;2022-12-24T13:04:39;26.33;;;5.10;;
10100;SDS011;5090;51.258;4.436;2022-12-24T13:07:38;35.43;;;5.53;;
10100;SDS011;5090;51.258;4.436;2022-12-24T13:09:56;18.40;;;4.23;;
10100;SDS011;5090;51.258;4.436;2022-12-24T13:15:06;23.57;;;5.53;;
10100;SDS011;5090;51.258;4.436;2022-12-24T13:20:15;32.40;;;6.07;;
10100;SDS011;5090;51.258;4.436;2022-12-24T13:22:39;32.73;;;6.90;;
10100;SDS011;5090;51.258;4.436;2022-12-24T13:25:17;33.57;;;7.10;;
10100;SDS011;5090;51.258;4.436;2022-12-24T13:27:35;32.43;;;5.97;;
10100;SDS011;5090;51.258;4.436;2022-12-24T13:30:32;26.60;;;5.93;;
10100;SDS011;5090;51.258;4.436;2022-12-24T13:40:48;25.87;;;5.60;;
10100;SDS011;5090;51.258;4.436;2022-12-24T14:00:53;27.23;;;6.57;;
10100;SDS011;5090;51.258;4.436;2022-12-24T14:03:53;28.03;;;5.80;;
10100;SDS011;5090;51.258;4.436;2022-12-24T14:06:04;31.40;;;5.57;;
10100;SDS011;5090;51.258;4.436;2022-12-24T14:08:34;28.07;;;5.47;;
10100;SDS011;5090;51.258;4.436;2022-12-24T14:11:06;29.77;;;6.13;;
10100;SDS011;5090;51.258;4.436;2022-12-24T14:31:02;24.30;;;6.20;;
10100;SDS011;5090;51.258;4.436;2022-12-24T14:33:30;29.23;;;6.00;;
10100;SDS011;5090;51.258;4.436;2022-12-24T14:35:57;30.97;;;6.50;;
10100;SDS011;5090;51.258;4.436;2022-12-24T14:38:27;34.23;;;7.03;;
10100;SDS011;5090;51.258;4.436;2022-12-24T14:46:16;32.23;;;5.97;;
10100;SDS011;5090;51.258;4.436;2022-12-24T14:48:49;41.37;;;7.67;;
10100;SDS011;5090;51.258;4.436;2022-12-24T14:51:53;33.47;;;5.70;;
10100;SDS011;5090;51.258;4.436;2022-12-24T14:54:07;26.27;;;6.27;;
10100;SDS011;5090;51.258;4.436;2022-12-24T14:56:31;36.30;;;6.60;;
10100;SDS011;5090;51.258;4.436;2022-12-24T14:59:00;36.13;;;6.57;;
10100;SDS011;5090;51.258;4.436;2022-12-24T15:01:30;31.27;;;5.67;;
10100;SDS011;5090;51.258;4.436;2022-12-24T15:04:03;31.67;;;5.57;;
10100;SDS011;5090;51.258;4.436;2022-12-24T15:06:31;29.43;;;5.77;;
10100;SDS011;5090;51.258;4.436;2022-12-24T15:08:58;27.60;;;6.13;;
10100;SDS011;5090;51.258;4.436;2022-12-24T15:11:27;33.47;;;6.70;;
10100;SDS011;5090;51.258;4.436;2022-12-24T15:13:55;30.57;;;5.97;;
10100;SDS011;5090;51.258;4.436;2022-12-24T15:16:24;26.97;;;6.50;;
10100;SDS011;5090;51.258;4.436;2022-12-24T15:18:54;26.57;;;5.43;;
10100;SDS011;5090;51.258;4.436;2022-12-24T15:21:24;31.07;;;6.23;;
10100;SDS011;5090;51.258;4.436;2022-12-24T15:23:51;29.77;;;5.93;;
10100;SDS011;5090;51.258;4.436;2022-12-24T15:26:24;33.13;;;5.93;;
10100;SDS011;5090;51.258;4.436;2022-12-24T15:28:50;26.63;;;6.23;;
10100;SDS011;5090;51.258;4.436;2022-12-24T15:31:20;29.30;;;5.80;;
10100;SDS011;5090;51.258;4.436;2022-12-24T15:33:50;26.50;;;6.33;;
10100;SDS011;5090;51.258;4.436;2022-12-24T15:36:33;26.57;;;5.87;;
10100;SDS011;5090;51.258;4.436;2022-12-24T15:39:01;32.63;;;6.17;;
10100;SDS011;5090;51.258;4.436;2022-12-24T15:41:34;32.30;;;6.87;;
10100;SDS011;5090;51.258;4.436;2022-12-24T15:43:59;27.40;;;7.50;;
10100;SDS011;5090;51.258;4.436;2022-12-24T15:46:28;28.63;;;7.37;;
10100;SDS011;5090;51.258;4.436;2022-12-24T15:48:56;21.43;;;6.73;;
10100;SDS011;5090;51.258;4.436;2022-12-24T15:51:26;30.03;;;7.07;;
10100;SDS011;5090;51.258;4.436;2022-12-24T15:53:59;34.27;;;6.80;;
10100;SDS011;5090;51.258;4.436;2022-12-24T15:56:31;34.93;;;8.03;;
10100;SDS011;5090;51.258;4.436;2022-12-24T16:01:33;34.03;;;7.10;;
10100;SDS011;5090;51.258;4.436;2022-12-24T16:04:09;27.60;;;7.03;;
10100;SDS011;5090;51.258;4.436;2022-12-24T16:06:37;35.13;;;7.87;;
10100;SDS011;5090;51.258;4.436;2022-12-24T16:08:58;23.73;;;6.67;;
10100;SDS011;5090;51.258;4.436;2022-12-24T16:11:32;24.87;;;6.83;;
10100;SDS011;5090;51.258;4.436;2022-12-24T16:14:03;27.70;;;7.07;;
10100;SDS011;5090;51.258;4.436;2022-12-24T16:16:32;32.30;;;7.47;;
10100;SDS011;5090;51.258;4.436;2022-12-24T16:18:59;26.83;;;7.60;;
10100;SDS011;5090;51.258;4.436;2022-12-24T16:21:35;34.43;;;9.13;;
10100;SDS011;5090;51.258;4.436;2022-12-24T16:24:04;29.57;;;6.70;;
10100;SDS011;5090;51.258;4.436;2022-12-24T16:26:32;27.57;;;6.60;;
10100;SDS011;5090;51.258;4.436;2022-12-24T16:28:59;35.90;;;8.27;;
10100;SDS011;5090;51.258;4.436;2022-12-24T16:31:30;38.23;;;7.30;;
10100;SDS011;5090;51.258;4.436;2022-12-24T16:33:57;32.17;;;7.23;;
10100;SDS011;5090;51.258;4.436;2022-12-24T16:36:25;36.83;;;7.27;;
10100;SDS011;5090;51.258;4.436;2022-12-24T16:38:53;30.83;;;7.53;;
10100;SDS011;5090;51.258;4.436;2022-12-24T16:41:27;34.47;;;8.03;;
10100;SDS011;5090;51.258;4.436;2022-12-24T16:43:55;28.70;;;8.00;;
10100;SDS011;5090;51.258;4.436;2022-12-24T16:46:24;27.67;;;7.50;;
10100;SDS011;5090;51.258;4.436;2022-12-24T16:48:52;33.83;;;8.10;;
10100;SDS011;5090;51.258;4.436;2022-12-24T16:51:20;32.67;;;8.70;;
10100;SDS011;5090;51.258;4.436;2022-12-24T16:53:48;35.47;;;8.60;;
10100;SDS011;5090;51.258;4.436;2022-12-24T16:56:17;31.63;;;8.33;;
10100;SDS011;5090;51.258;4.436;2022-12-24T16:58:45;34.80;;;8.87;;
10100;SDS011;5090;51.258;4.436;2022-12-24T17:01:13;34.43;;;10.53;;
10100;SDS011;5090;51.258;4.436;2022-12-24T17:03:41;36.63;;;10.13;;
10100;SDS011;5090;51.258;4.436;2022-12-24T17:06:10;36.37;;;10.80;;
10100;SDS011;5090;51.258;4.436;2022-12-24T17:08:38;38.47;;;10.27;;
10100;SDS011;5090;51.258;4.436;2022-12-24T17:11:08;38.30;;;11.13;;
10100;SDS011;5090;51.258;4.436;2022-12-24T17:13:36;29.70;;;11.47;;
10100;SDS011;5090;51.258;4.436;2022-12-24T17:16:04;36.43;;;10.93;;
10100;SDS011;5090;51.258;4.436;2022-12-24T17:18:33;33.80;;;11.77;;
10100;SDS011;5090;51.258;4.436;2022-12-24T17:21:01;32.00;;;11.77;;
10100;SDS011;5090;51.258;4.436;2022-12-24T17:23:29;30.70;;;10.93;;
10100;SDS011;5090;51.258;4.436;2022-12-24T17:25:58;34.37;;;11.70;;
10100;SDS011;5090;51.258;4.436;2022-12-24T17:28:26;26.87;;;9.80;;
10100;SDS011;5090;51.258;4.436;2022-12-24T17:30:55;42.37;;;11.40;;
10100;SDS011;5090;51.258;4.436;2022-12-24T17:33:24;37.23;;;11.30;;
10100;SDS011;5090;51.258;4.436;2022-12-24T17:35:52;32.80;;;10.20;;
10100;SDS011;5090;51.258;4.436;2022-12-24T17:38:20;30.10;;;9.70;;
10100;SDS011;5090;51.258;4.436;2022-12-24T17:40:49;38.43;;;10.77;;
10100;SDS011;5090;51.258;4.436;2022-12-24T17:43:17;34.33;;;9.47;;
10100;SDS011;5090;51.258;4.436;2022-12-24T17:45:45;35.93;;;9.63;;
10100;SDS011;5090;51.258;4.436;2022-12-24T17:48:13;40.30;;;12.40;;
10100;SDS011;5090;51.258;4.436;2022-12-24T17:50:41;33.20;;;9.93;;
10100;SDS011;5090;51.258;4.436;2022-12-24T17:53:10;34.40;;;10.37;;
10100;SDS011;5090;51.258;4.436;2022-12-24T17:55:39;35.47;;;10.30;;
10100;SDS011;5090;51.258;4.436;2022-12-24T17:58:06;37.13;;;10.90;;
10100;SDS011;5090;51.258;4.436;2022-12-24T18:00:34;32.13;;;10.60;;
10100;SDS011;5090;51.258;4.436;2022-12-24T18:03:03;29.60;;;9.23;;
10100;SDS011;5090;51.258;4.436;2022-12-24T18:05:33;39.93;;;9.67;;
10100;SDS011;5090;51.258;4.436;2022-12-24T18:08:01;38.47;;;10.40;;
10100;SDS011;5090;51.258;4.436;2022-12-24T18:10:29;26.70;;;9.77;;
10100;SDS011;5090;51.258;4.436;2022-12-24T18:12:57;32.73;;;10.40;;